Airport View

Enter AWOS ICAO identifier for current METAR.

ex. KFNL

KLSE 250953Z AUTO 01004KT 10SM OVC110 00/M07 A3033 RMK AO2 SLP281 T00001067

25 Oct 2020 10:39

Phone: 608-781-9067

Other Area AWOS: KCMY - KONA - KY51 - KBCK

TAF KLSE 250520Z 2506/2606 35005KT P6SM OVC090 FM251800 VRB04KT 3SM -SN BR OVC028 FM252100 36005KT 1 1/2SM -SN BR OVC015 FM252300 34005KT 2SM -SN BR OVC009 FM260200 35005KT P6SM OVC008